sensor_id;sensor_type;location;lat;lon;timestamp;pressure;altitude;pressure_sealevel;temperature;humidity
71915;BME280;60387;49.994;14.660;2023-08-24T00:01:17;97949.28;;;24.57;37.59
71915;BME280;60387;49.994;14.660;2023-08-24T00:03:50;97957.59;;;24.57;37.11
71915;BME280;60387;49.994;14.660;2023-08-24T00:06:23;97950.81;;;24.51;37.33
71915;BME280;60387;49.994;14.660;2023-08-24T00:08:57;97961.88;;;24.47;37.24
71915;BME280;60387;49.994;14.660;2023-08-24T00:11:30;97958.25;;;24.40;37.21
71915;BME280;60387;49.994;14.660;2023-08-24T00:14:04;97959.84;;;24.37;36.98
71915;BME280;60387;49.994;14.660;2023-08-24T00:16:37;97955.44;;;24.36;37.59
71915;BME280;60387;49.994;14.660;2023-08-24T00:19:11;97964.16;;;24.35;39.61
71915;BME280;60387;49.994;14.660;2023-08-24T00:21:44;97959.38;;;24.32;39.96
71915;BME280;60387;49.994;14.660;2023-08-24T00:24:17;97957.75;;;24.27;39.75
71915;BME280;60387;49.994;14.660;2023-08-24T00:26:51;97961.72;;;24.26;39.40
71915;BME280;60387;49.994;14.660;2023-08-24T00:29:24;97960.50;;;24.24;38.52
71915;BME280;60387;49.994;14.660;2023-08-24T00:31:57;97952.19;;;24.20;38.33
71915;BME280;60387;49.994;14.660;2023-08-24T00:34:31;97952.16;;;24.17;37.97
71915;BME280;60387;49.994;14.660;2023-08-24T00:37:04;97962.81;;;24.15;37.83
71915;BME280;60387;49.994;14.660;2023-08-24T00:39:37;97952.09;;;24.10;38.19
71915;BME280;60387;49.994;14.660;2023-08-24T00:42:11;97954.44;;;24.04;38.06
71915;BME280;60387;49.994;14.660;2023-08-24T00:44:45;97950.03;;;24.00;38.07
71915;BME280;60387;49.994;14.660;2023-08-24T00:47:18;97939.31;;;23.95;38.00
71915;BME280;60387;49.994;14.660;2023-08-24T00:49:53;97940.50;;;23.94;37.78
71915;BME280;60387;49.994;14.660;2023-08-24T00:52:28;97948.34;;;23.88;37.68
71915;BME280;60387;49.994;14.660;2023-08-24T00:55:02;97947.16;;;23.86;37.75
71915;BME280;60387;49.994;14.660;2023-08-24T00:57:37;97943.13;;;23.83;37.88
71915;BME280;60387;49.994;14.660;2023-08-24T01:00:10;97950.22;;;23.81;37.64
71915;BME280;60387;49.994;14.660;2023-08-24T01:02:44;97951.78;;;23.78;38.28
71915;BME280;60387;49.994;14.660;2023-08-24T01:05:17;97946.19;;;23.71;38.17
71915;BME280;60387;49.994;14.660;2023-08-24T01:07:50;97951.75;;;23.75;39.82
71915;BME280;60387;49.994;14.660;2023-08-24T01:10:24;97949.38;;;23.73;40.53
71915;BME280;60387;49.994;14.660;2023-08-24T01:13:08;97955.31;;;23.75;41.52
71915;BME280;60387;49.994;14.660;2023-08-24T01:18:16;97943.88;;;23.77;42.06
71915;BME280;60387;49.994;14.660;2023-08-24T01:20:50;97947.81;;;23.76;43.36
71915;BME280;60387;49.994;14.660;2023-08-24T01:23:41;97948.56;;;23.73;43.12
71915;BME280;60387;49.994;14.660;2023-08-24T01:26:18;97945.38;;;23.71;43.29
71915;BME280;60387;49.994;14.660;2023-08-24T01:28:52;97944.56;;;23.67;42.75
71915;BME280;60387;49.994;14.660;2023-08-24T01:31:26;97938.19;;;23.63;42.59
71915;BME280;60387;49.994;14.660;2023-08-24T01:34:00;97942.91;;;23.59;42.22
71915;BME280;60387;49.994;14.660;2023-08-24T01:36:33;97932.09;;;23.47;41.68
71915;BME280;60387;49.994;14.660;2023-08-24T01:41:46;97936.78;;;23.40;42.69
71915;BME280;60387;49.994;14.660;2023-08-24T01:44:25;97926.44;;;23.33;42.17
71915;BME280;60387;49.994;14.660;2023-08-24T01:47:01;97926.78;;;23.28;42.31
71915;BME280;60387;49.994;14.660;2023-08-24T01:49:37;97929.94;;;23.27;41.77
71915;BME280;60387;49.994;14.660;2023-08-24T01:52:12;97930.66;;;23.24;41.37
71915;BME280;60387;49.994;14.660;2023-08-24T01:54:47;97932.22;;;23.21;41.84
71915;BME280;60387;49.994;14.660;2023-08-24T01:57:21;97923.41;;;23.12;42.52
71915;BME280;60387;49.994;14.660;2023-08-24T01:59:54;97934.41;;;23.05;41.78
71915;BME280;60387;49.994;14.660;2023-08-24T02:02:27;97917.28;;;22.96;41.22
71915;BME280;60387;49.994;14.660;2023-08-24T02:05:01;97927.56;;;22.96;41.05
71915;BME280;60387;49.994;14.660;2023-08-24T02:07:34;97920.75;;;22.90;41.21
71915;BME280;60387;49.994;14.660;2023-08-24T02:10:08;97912.81;;;22.85;40.72
71915;BME280;60387;49.994;14.660;2023-08-24T02:12:41;97911.97;;;22.81;41.78
71915;BME280;60387;49.994;14.660;2023-08-24T02:15:14;97910.38;;;22.80;42.46
71915;BME280;60387;49.994;14.660;2023-08-24T02:17:48;97906.81;;;22.79;44.03
71915;BME280;60387;49.994;14.660;2023-08-24T02:20:21;97898.50;;;22.76;44.45
71915;BME280;60387;49.994;14.660;2023-08-24T02:22:54;97903.31;;;22.82;44.63
71915;BME280;60387;49.994;14.660;2023-08-24T02:25:28;97908.50;;;22.87;45.05
71915;BME280;60387;49.994;14.660;2023-08-24T02:28:01;97912.53;;;22.93;45.45
71915;BME280;60387;49.994;14.660;2023-08-24T02:30:37;97918.41;;;22.92;44.36
71915;BME280;60387;49.994;14.660;2023-08-24T02:33:11;97916.03;;;22.90;43.71
71915;BME280;60387;49.994;14.660;2023-08-24T02:35:47;97912.00;;;22.84;43.05
71915;BME280;60387;49.994;14.660;2023-08-24T02:38:20;97907.16;;;22.74;42.48
71915;BME280;60387;49.994;14.660;2023-08-24T02:41:00;97903.13;;;22.68;42.38
71915;BME280;60387;49.994;14.660;2023-08-24T02:43:34;97913.34;;;22.64;42.41
71915;BME280;60387;49.994;14.660;2023-08-24T02:46:08;97905.38;;;22.59;42.03
71915;BME280;60387;49.994;14.660;2023-08-24T02:48:42;97893.44;;;22.52;42.33
71915;BME280;60387;49.994;14.660;2023-08-24T02:51:15;97904.84;;;22.50;41.82
71915;BME280;60387;49.994;14.660;2023-08-24T02:53:49;97903.22;;;22.46;41.82
71915;BME280;60387;49.994;14.660;2023-08-24T02:56:22;97908.25;;;22.40;41.76
71915;BME280;60387;49.994;14.660;2023-08-24T02:58:56;97905.47;;;22.40;41.98
71915;BME280;60387;49.994;14.660;2023-08-24T03:01:29;97911.75;;;22.37;42.41
71915;BME280;60387;49.994;14.660;2023-08-24T03:04:02;97909.72;;;22.34;44.39
71915;BME280;60387;49.994;14.660;2023-08-24T03:06:36;97913.66;;;22.33;44.24
71915;BME280;60387;49.994;14.660;2023-08-24T03:09:09;97909.31;;;22.32;44.66
71915;BME280;60387;49.994;14.660;2023-08-24T03:11:42;97914.47;;;22.34;44.38
71915;BME280;60387;49.994;14.660;2023-08-24T03:14:15;97914.00;;;22.28;43.52
71915;BME280;60387;49.994;14.660;2023-08-24T03:16:49;97908.72;;;22.20;43.20
71915;BME280;60387;49.994;14.660;2023-08-24T03:19:25;97911.44;;;22.16;42.89
71915;BME280;60387;49.994;14.660;2023-08-24T03:21:58;97906.25;;;22.11;42.76
71915;BME280;60387;49.994;14.660;2023-08-24T03:24:31;97903.00;;;22.06;43.01
71915;BME280;60387;49.994;14.660;2023-08-24T03:27:05;97906.13;;;22.04;43.06
71915;BME280;60387;49.994;14.660;2023-08-24T03:29:38;97915.53;;;22.00;44.19
71915;BME280;60387;49.994;14.660;2023-08-24T03:32:11;97910.38;;;21.98;43.81
71915;BME280;60387;49.994;14.660;2023-08-24T03:34:45;97910.66;;;21.93;43.18
71915;BME280;60387;49.994;14.660;2023-08-24T03:37:18;97914.19;;;21.90;43.72
71915;BME280;60387;49.994;14.660;2023-08-24T03:39:51;97907.81;;;21.86;44.78
71915;BME280;60387;49.994;14.660;2023-08-24T03:42:24;97918.09;;;21.89;45.57
71915;BME280;60387;49.994;14.660;2023-08-24T03:44:59;97918.78;;;21.83;45.17
71915;BME280;60387;49.994;14.660;2023-08-24T03:47:32;97912.84;;;21.81;43.85
71915;BME280;60387;49.994;14.660;2023-08-24T03:50:06;97919.91;;;21.78;43.44
71915;BME280;60387;49.994;14.660;2023-08-24T03:52:39;97919.84;;;21.75;43.11
71915;BME280;60387;49.994;14.660;2023-08-24T03:55:13;97921.78;;;21.74;44.16
71915;BME280;60387;49.994;14.660;2023-08-24T03:57:46;97919.78;;;21.71;45.86
71915;BME280;60387;49.994;14.660;2023-08-24T04:00:19;97927.72;;;21.76;46.64
71915;BME280;60387;49.994;14.660;2023-08-24T04:02:52;97924.97;;;21.76;45.98
71915;BME280;60387;49.994;14.660;2023-08-24T04:05:26;97925.41;;;21.78;45.93
71915;BME280;60387;49.994;14.660;2023-08-24T04:07:59;97931.78;;;21.82;45.78
71915;BME280;60387;49.994;14.660;2023-08-24T04:10:33;97928.59;;;21.80;46.08
71915;BME280;60387;49.994;14.660;2023-08-24T04:13:06;97922.72;;;21.82;47.11
71915;BME280;60387;49.994;14.660;2023-08-24T04:15:39;97927.13;;;21.86;46.50
71915;BME280;60387;49.994;14.660;2023-08-24T04:18:13;97935.06;;;21.91;45.22
71915;BME280;60387;49.994;14.660;2023-08-24T04:20:46;97931.53;;;21.91;44.53
71915;BME280;60387;49.994;14.660;2023-08-24T04:23:26;97933.91;;;21.92;45.10
71915;BME280;60387;49.994;14.660;2023-08-24T04:25:59;97934.72;;;21.93;44.35
71915;BME280;60387;49.994;14.660;2023-08-24T04:28:32;97928.09;;;21.97;45.50
71915;BME280;60387;49.994;14.660;2023-08-24T04:31:06;97929.28;;;22.22;45.51
71915;BME280;60387;49.994;14.660;2023-08-24T04:33:39;97932.16;;;22.55;44.97
71915;BME280;60387;49.994;14.660;2023-08-24T04:36:12;97932.22;;;22.92;44.23
71915;BME280;60387;49.994;14.660;2023-08-24T04:38:46;97925.94;;;23.24;43.69
71915;BME280;60387;49.994;14.660;2023-08-24T04:41:19;97934.97;;;23.57;43.11
71915;BME280;60387;49.994;14.660;2023-08-24T04:43:52;97936.13;;;23.93;42.59
71915;BME280;60387;49.994;14.660;2023-08-24T04:46:26;97936.38;;;24.24;42.26
71915;BME280;60387;49.994;14.660;2023-08-24T04:48:59;97923.13;;;24.51;41.95
71915;BME280;60387;49.994;14.660;2023-08-24T04:51:32;97939.94;;;24.82;41.42
71915;BME280;60387;49.994;14.660;2023-08-24T04:54:06;97936.84;;;24.98;41.31
71915;BME280;60387;49.994;14.660;2023-08-24T04:56:39;97936.88;;;25.08;41.10
71915;BME280;60387;49.994;14.660;2023-08-24T04:59:12;97948.50;;;25.28;41.02
71915;BME280;60387;49.994;14.660;2023-08-24T05:01:45;97938.63;;;25.51;40.70
71915;BME280;60387;49.994;14.660;2023-08-24T05:04:19;97936.31;;;25.78;40.75
71915;BME280;60387;49.994;14.660;2023-08-24T05:06:52;97941.50;;;26.00;40.89
71915;BME280;60387;49.994;14.660;2023-08-24T05:09:25;97941.88;;;26.27;40.65
71915;BME280;60387;49.994;14.660;2023-08-24T05:11:58;97949.00;;;26.49;40.05
71915;BME280;60387;49.994;14.660;2023-08-24T05:14:32;97943.03;;;26.64;40.38
71915;BME280;60387;49.994;14.660;2023-08-24T05:17:05;97953.34;;;26.78;40.17
71915;BME280;60387;49.994;14.660;2023-08-24T05:19:38;97942.56;;;26.90;39.51
71915;BME280;60387;49.994;14.660;2023-08-24T05:22:12;97931.81;;;26.96;39.83
71915;BME280;60387;49.994;14.660;2023-08-24T05:24:46;97952.47;;;27.16;39.57
71915;BME280;60387;49.994;14.660;2023-08-24T05:27:19;97944.47;;;27.25;39.61
71915;BME280;60387;49.994;14.660;2023-08-24T05:29:52;97950.75;;;27.39;39.60
71915;BME280;60387;49.994;14.660;2023-08-24T05:32:26;97941.53;;;27.52;39.93
71915;BME280;60387;49.994;14.660;2023-08-24T05:34:59;97951.38;;;27.71;39.76
71915;BME280;60387;49.994;14.660;2023-08-24T05:37:32;97938.16;;;27.85;39.25
71915;BME280;60387;49.994;14.660;2023-08-24T05:40:06;97937.25;;;27.99;39.25
71915;BME280;60387;49.994;14.660;2023-08-24T05:42:40;97938.72;;;28.17;39.53
71915;BME280;60387;49.994;14.660;2023-08-24T05:45:13;97941.72;;;28.37;39.11
71915;BME280;60387;49.994;14.660;2023-08-24T05:47:46;97937.97;;;28.54;38.76
71915;BME280;60387;49.994;14.660;2023-08-24T05:50:19;97942.94;;;28.76;38.86
71915;BME280;60387;49.994;14.660;2023-08-24T05:52:53;97939.22;;;28.93;38.06
71915;BME280;60387;49.994;14.660;2023-08-24T05:55:26;97941.78;;;29.11;38.12
71915;BME280;60387;49.994;14.660;2023-08-24T05:58:02;97950.66;;;29.32;37.89
71915;BME280;60387;49.994;14.660;2023-08-24T06:00:36;97952.41;;;29.53;37.85
71915;BME280;60387;49.994;14.660;2023-08-24T06:03:09;97945.34;;;29.75;37.63
71915;BME280;60387;49.994;14.660;2023-08-24T06:05:42;97946.63;;;29.93;37.19
71915;BME280;60387;49.994;14.660;2023-08-24T06:08:15;97953.97;;;30.10;36.72
71915;BME280;60387;49.994;14.660;2023-08-24T06:10:49;97956.03;;;30.29;36.68
71915;BME280;60387;49.994;14.660;2023-08-24T06:13:22;97958.13;;;30.48;36.67
71915;BME280;60387;49.994;14.660;2023-08-24T06:15:55;97962.16;;;30.70;36.26
71915;BME280;60387;49.994;14.660;2023-08-24T06:18:29;97966.50;;;30.94;36.20
71915;BME280;60387;49.994;14.660;2023-08-24T06:21:02;97965.66;;;31.17;35.99
71915;BME280;60387;49.994;14.660;2023-08-24T06:23:35;97967.97;;;31.41;35.71
71915;BME280;60387;49.994;14.660;2023-08-24T06:26:09;97964.72;;;31.62;35.87
71915;BME280;60387;49.994;14.660;2023-08-24T06:28:42;97963.06;;;31.84;35.63
71915;BME280;60387;49.994;14.660;2023-08-24T06:31:15;97959.75;;;32.05;35.37
71915;BME280;60387;49.994;14.660;2023-08-24T06:33:49;97959.28;;;32.26;34.94
71915;BME280;60387;49.994;14.660;2023-08-24T06:36:23;97957.91;;;32.46;34.68
71915;BME280;60387;49.994;14.660;2023-08-24T06:38:56;97953.88;;;32.63;34.15
71915;BME280;60387;49.994;14.660;2023-08-24T06:41:33;97962.19;;;32.83;34.05
71915;BME280;60387;49.994;14.660;2023-08-24T06:44:06;97961.25;;;33.02;34.32
71915;BME280;60387;49.994;14.660;2023-08-24T06:46:40;97963.50;;;33.23;33.74
71915;BME280;60387;49.994;14.660;2023-08-24T06:49:13;97952.91;;;33.43;33.56
71915;BME280;60387;49.994;14.660;2023-08-24T06:51:46;97950.47;;;33.70;33.53
71915;BME280;60387;49.994;14.660;2023-08-24T06:54:20;97954.13;;;33.83;31.58
71915;BME280;60387;49.994;14.660;2023-08-24T06:56:53;97945.13;;;33.88;32.63
71915;BME280;60387;49.994;14.660;2023-08-24T06:59:26;97948.94;;;33.94;31.92
71915;BME280;60387;49.994;14.660;2023-08-24T07:02:00;97960.50;;;34.08;32.21
71915;BME280;60387;49.994;14.660;2023-08-24T07:04:33;97949.53;;;34.26;32.54
71915;BME280;60387;49.994;14.660;2023-08-24T07:07:06;97942.06;;;34.45;32.40
71915;BME280;60387;49.994;14.660;2023-08-24T07:09:40;97951.16;;;34.74;32.16
71915;BME280;60387;49.994;14.660;2023-08-24T07:12:13;97946.44;;;34.92;30.54
71915;BME280;60387;49.994;14.660;2023-08-24T07:14:46;97957.09;;;35.10;31.08
71915;BME280;60387;49.994;14.660;2023-08-24T07:17:19;97951.16;;;35.29;30.28
71915;BME280;60387;49.994;14.660;2023-08-24T07:19:53;97955.53;;;35.51;30.94
71915;BME280;60387;49.994;14.660;2023-08-24T07:22:26;97941.25;;;35.67;30.69
71915;BME280;60387;49.994;14.660;2023-08-24T07:25:00;97945.75;;;35.95;31.14
71915;BME280;60387;49.994;14.660;2023-08-24T07:27:34;97944.00;;;36.19;30.40
71915;BME280;60387;49.994;14.660;2023-08-24T07:30:08;97951.59;;;36.40;30.35
71915;BME280;60387;49.994;14.660;2023-08-24T07:32:42;97944.25;;;36.52;29.48
71915;BME280;60387;49.994;14.660;2023-08-24T07:35:15;97946.66;;;36.71;29.42
71915;BME280;60387;49.994;14.660;2023-08-24T07:37:49;97954.84;;;36.87;29.50
71915;BME280;60387;49.994;14.660;2023-08-24T07:40:22;97956.72;;;36.99;29.20
71915;BME280;60387;49.994;14.660;2023-08-24T07:42:55;97958.66;;;37.11;28.49
71915;BME280;60387;49.994;14.660;2023-08-24T07:45:29;97958.00;;;37.25;29.76
71915;BME280;60387;49.994;14.660;2023-08-24T07:48:02;97955.13;;;37.43;28.77
71915;BME280;60387;49.994;14.660;2023-08-24T07:50:36;97959.56;;;37.62;29.47
71915;BME280;60387;49.994;14.660;2023-08-24T07:53:09;97955.25;;;37.85;28.05
71915;BME280;60387;49.994;14.660;2023-08-24T07:55:42;97960.88;;;38.03;28.42
71915;BME280;60387;49.994;14.660;2023-08-24T07:58:16;97950.91;;;38.16;28.41
71915;BME280;60387;49.994;14.660;2023-08-24T08:00:50;97956.00;;;38.36;27.36
71915;BME280;60387;49.994;14.660;2023-08-24T08:03:23;97957.19;;;38.53;27.19
71915;BME280;60387;49.994;14.660;2023-08-24T08:05:56;97955.69;;;38.66;27.86
71915;BME280;60387;49.994;14.660;2023-08-24T08:08:30;97948.97;;;38.78;27.08
71915;BME280;60387;49.994;14.660;2023-08-24T08:11:03;97963.09;;;38.87;27.32
71915;BME280;60387;49.994;14.660;2023-08-24T08:13:36;97955.91;;;39.01;27.21
71915;BME280;60387;49.994;14.660;2023-08-24T08:16:10;97954.38;;;39.14;27.35
71915;BME280;60387;49.994;14.660;2023-08-24T08:18:43;97951.22;;;39.36;26.01
71915;BME280;60387;49.994;14.660;2023-08-24T08:21:17;97946.81;;;39.35;24.90
71915;BME280;60387;49.994;14.660;2023-08-24T08:23:51;97952.44;;;39.20;25.55
71915;BME280;60387;49.994;14.660;2023-08-24T08:26:24;97946.75;;;39.06;26.05
71915;BME280;60387;49.994;14.660;2023-08-24T08:28:57;97943.69;;;38.95;25.12
71915;BME280;60387;49.994;14.660;2023-08-24T08:31:31;97947.38;;;38.63;24.91
71915;BME280;60387;49.994;14.660;2023-08-24T08:34:04;97941.94;;;38.50;25.85
71915;BME280;60387;49.994;14.660;2023-08-24T08:36:37;97935.72;;;38.37;24.44
71915;BME280;60387;49.994;14.660;2023-08-24T08:39:11;97930.13;;;38.19;24.68
71915;BME280;60387;49.994;14.660;2023-08-24T08:41:45;97921.28;;;37.85;25.26
71915;BME280;60387;49.994;14.660;2023-08-24T08:44:20;97923.59;;;37.54;26.05
71915;BME280;60387;49.994;14.660;2023-08-24T08:46:55;97925.63;;;37.26;25.03
71915;BME280;60387;49.994;14.660;2023-08-24T08:49:30;97919.22;;;36.99;25.49
71915;BME280;60387;49.994;14.660;2023-08-24T08:52:03;97923.91;;;36.93;26.14
71915;BME280;60387;49.994;14.660;2023-08-24T08:54:37;97921.72;;;36.88;26.23
71915;BME280;60387;49.994;14.660;2023-08-24T08:57:11;97923.78;;;36.78;25.72
71915;BME280;60387;49.994;14.660;2023-08-24T08:59:45;97927.84;;;36.95;25.85
71915;BME280;60387;49.994;14.660;2023-08-24T09:02:19;97934.28;;;36.96;25.87
71915;BME280;60387;49.994;14.660;2023-08-24T09:04:53;97928.16;;;36.97;25.37
71915;BME280;60387;49.994;14.660;2023-08-24T09:07:27;97927.72;;;37.08;25.37
71915;BME280;60387;49.994;14.660;2023-08-24T09:10:00;97930.22;;;37.33;25.26
71915;BME280;60387;49.994;14.660;2023-08-24T09:12:34;97930.03;;;37.36;25.48
71915;BME280;60387;49.994;14.660;2023-08-24T09:15:08;97931.91;;;37.48;25.23
71915;BME280;60387;49.994;14.660;2023-08-24T09:17:42;97932.03;;;37.63;25.86
71915;BME280;60387;49.994;14.660;2023-08-24T09:20:17;97927.75;;;37.76;25.67
71915;BME280;60387;49.994;14.660;2023-08-24T09:22:50;97924.25;;;37.99;25.03
71915;BME280;60387;49.994;14.660;2023-08-24T09:25:24;97926.97;;;38.17;24.15
71915;BME280;60387;49.994;14.660;2023-08-24T09:27:58;97926.28;;;38.31;24.45
71915;BME280;60387;49.994;14.660;2023-08-24T09:30:34;97926.56;;;38.42;24.55
71915;BME280;60387;49.994;14.660;2023-08-24T09:33:11;97913.13;;;38.19;23.94
71915;BME280;60387;49.994;14.660;2023-08-24T09:35:44;97920.22;;;37.73;24.23
71915;BME280;60387;49.994;14.660;2023-08-24T09:38:18;97913.84;;;37.55;24.51
71915;BME280;60387;49.994;14.660;2023-08-24T09:40:53;97905.31;;;37.64;24.56
71915;BME280;60387;49.994;14.660;2023-08-24T09:43:30;97904.16;;;37.88;25.21
71915;BME280;60387;49.994;14.660;2023-08-24T09:46:03;97893.31;;;38.19;24.54
71915;BME280;60387;49.994;14.660;2023-08-24T09:48:36;97890.66;;;38.48;22.96
71915;BME280;60387;49.994;14.660;2023-08-24T09:51:10;97891.50;;;38.40;23.49
71915;BME280;60387;49.994;14.660;2023-08-24T09:53:45;97898.94;;;38.28;23.32
71915;BME280;60387;49.994;14.660;2023-08-24T09:56:19;97893.56;;;38.39;23.67
71915;BME280;60387;49.994;14.660;2023-08-24T09:58:55;97874.03;;;38.41;24.34
71915;BME280;60387;49.994;14.660;2023-08-24T10:01:31;97882.47;;;38.50;23.18
71915;BME280;60387;49.994;14.660;2023-08-24T10:04:05;97878.16;;;38.31;23.09
71915;BME280;60387;49.994;14.660;2023-08-24T10:06:38;97874.53;;;38.31;22.75
71915;BME280;60387;49.994;14.660;2023-08-24T10:09:19;97869.09;;;38.18;23.50
71915;BME280;60387;49.994;14.660;2023-08-24T10:11:58;97859.59;;;38.30;23.54
71915;BME280;60387;49.994;14.660;2023-08-24T10:14:38;97860.31;;;38.63;23.74
71915;BME280;60387;49.994;14.660;2023-08-24T10:17:14;97852.31;;;39.00;23.31
71915;BME280;60387;49.994;14.660;2023-08-24T10:19:51;97854.69;;;39.01;22.73
71915;BME280;60387;49.994;14.660;2023-08-24T10:22:25;97848.09;;;38.81;22.40
71915;BME280;60387;49.994;14.660;2023-08-24T10:24:58;97837.59;;;38.72;23.17
71915;BME280;60387;49.994;14.660;2023-08-24T10:27:32;97832.19;;;38.83;22.79
71915;BME280;60387;49.994;14.660;2023-08-24T10:30:06;97829.81;;;38.82;23.12
71915;BME280;60387;49.994;14.660;2023-08-24T10:32:40;97817.69;;;38.81;22.59
71915;BME280;60387;49.994;14.660;2023-08-24T10:35:14;97829.97;;;38.64;23.15
71915;BME280;60387;49.994;14.660;2023-08-24T10:37:52;97817.22;;;38.45;22.92
71915;BME280;60387;49.994;14.660;2023-08-24T10:43:06;97822.94;;;38.36;23.39
71915;BME280;60387;49.994;14.660;2023-08-24T10:46:00;97833.13;;;38.42;23.43
71915;BME280;60387;49.994;14.660;2023-08-24T10:51:20;97837.84;;;38.98;23.12
71915;BME280;60387;49.994;14.660;2023-08-24T10:53:59;97819.19;;;39.20;22.59
71915;BME280;60387;49.994;14.660;2023-08-24T10:56:37;97816.38;;;39.20;22.23
71915;BME280;60387;49.994;14.660;2023-08-24T10:59:14;97814.13;;;39.39;22.41
71915;BME280;60387;49.994;14.660;2023-08-24T11:04:25;97814.72;;;39.28;22.23
71915;BME280;60387;49.994;14.660;2023-08-24T11:06:59;97815.72;;;39.25;22.56
71915;BME280;60387;49.994;14.660;2023-08-24T11:09:48;97813.53;;;39.20;22.96
71915;BME280;60387;49.994;14.660;2023-08-24T11:12:21;97816.19;;;39.09;22.02
71915;BME280;60387;49.994;14.660;2023-08-24T11:14:54;97798.59;;;39.34;22.77
71915;BME280;60387;49.994;14.660;2023-08-24T11:17:30;97799.13;;;39.52;22.56
71915;BME280;60387;49.994;14.660;2023-08-24T11:20:04;97792.22;;;39.68;22.27
71915;BME280;60387;49.994;14.660;2023-08-24T11:22:37;97793.56;;;39.72;22.33
71915;BME280;60387;49.994;14.660;2023-08-24T11:25:11;97799.31;;;39.78;22.57
71915;BME280;60387;49.994;14.660;2023-08-24T11:27:45;97793.31;;;39.90;22.25
71915;BME280;60387;49.994;14.660;2023-08-24T11:30:18;97783.03;;;39.93;21.71
71915;BME280;60387;49.994;14.660;2023-08-24T11:32:52;97789.63;;;40.04;21.48
71915;BME280;60387;49.994;14.660;2023-08-24T11:35:26;97779.53;;;40.18;21.64
71915;BME280;60387;49.994;14.660;2023-08-24T11:38:00;97776.53;;;40.27;21.17
71915;BME280;60387;49.994;14.660;2023-08-24T11:40:33;97774.16;;;40.45;21.87
71915;BME280;60387;49.994;14.660;2023-08-24T11:43:06;97769.50;;;40.62;21.44
71915;BME280;60387;49.994;14.660;2023-08-24T11:45:39;97767.25;;;40.92;21.45
71915;BME280;60387;49.994;14.660;2023-08-24T11:48:14;97765.72;;;41.22;21.12
71915;BME280;60387;49.994;14.660;2023-08-24T11:50:47;97755.06;;;41.42;19.84
71915;BME280;60387;49.994;14.660;2023-08-24T11:53:21;97758.31;;;41.66;21.00
71915;BME280;60387;49.994;14.660;2023-08-24T11:55:55;97758.72;;;41.85;20.38
71915;BME280;60387;49.994;14.660;2023-08-24T11:58:28;97767.28;;;41.90;19.99
71915;BME280;60387;49.994;14.660;2023-08-24T12:01:02;97760.28;;;41.91;20.60
71915;BME280;60387;49.994;14.660;2023-08-24T12:03:36;97765.53;;;42.04;19.19
71915;BME280;60387;49.994;14.660;2023-08-24T12:06:11;97750.28;;;42.07;19.53
71915;BME280;60387;49.994;14.660;2023-08-24T12:08:46;97751.19;;;42.24;19.39
71915;BME280;60387;49.994;14.660;2023-08-24T12:11:20;97741.63;;;42.32;18.75
71915;BME280;60387;49.994;14.660;2023-08-24T12:13:54;97737.47;;;42.33;19.08
71915;BME280;60387;49.994;14.660;2023-08-24T12:16:31;97738.50;;;42.30;19.17
71915;BME280;60387;49.994;14.660;2023-08-24T12:19:07;97734.09;;;42.29;18.98
71915;BME280;60387;49.994;14.660;2023-08-24T12:21:43;97732.81;;;42.36;19.16
71915;BME280;60387;49.994;14.660;2023-08-24T12:24:16;97742.94;;;42.48;18.77
71915;BME280;60387;49.994;14.660;2023-08-24T12:26:56;97723.22;;;42.28;18.43
71915;BME280;60387;49.994;14.660;2023-08-24T12:29:30;97728.31;;;42.13;19.49
71915;BME280;60387;49.994;14.660;2023-08-24T12:32:03;97724.31;;;41.88;19.15
71915;BME280;60387;49.994;14.660;2023-08-24T12:34:37;97715.81;;;41.57;19.86
71915;BME280;60387;49.994;14.660;2023-08-24T12:37:10;97702.09;;;41.19;20.23
71915;BME280;60387;49.994;14.660;2023-08-24T12:39:43;97696.91;;;40.87;20.52
71915;BME280;60387;49.994;14.660;2023-08-24T12:42:17;97693.13;;;40.70;20.39
71915;BME280;60387;49.994;14.660;2023-08-24T12:44:50;97694.09;;;40.67;20.57
71915;BME280;60387;49.994;14.660;2023-08-24T12:47:23;97680.50;;;40.76;20.85
71915;BME280;60387;49.994;14.660;2023-08-24T12:49:56;97682.53;;;40.96;20.69
71915;BME280;60387;49.994;14.660;2023-08-24T12:52:30;97684.25;;;40.88;20.78
71915;BME280;60387;49.994;14.660;2023-08-24T12:55:03;97681.00;;;40.75;20.21
71915;BME280;60387;49.994;14.660;2023-08-24T12:57:37;97675.72;;;40.62;20.69
71915;BME280;60387;49.994;14.660;2023-08-24T13:00:10;97675.66;;;40.11;20.57
71915;BME280;60387;49.994;14.660;2023-08-24T13:02:44;97665.44;;;39.79;21.22
71915;BME280;60387;49.994;14.660;2023-08-24T13:05:17;97671.88;;;39.60;21.17
71915;BME280;60387;49.994;14.660;2023-08-24T13:07:51;97671.44;;;39.47;21.48
71915;BME280;60387;49.994;14.660;2023-08-24T13:10:24;97655.84;;;39.57;21.36
71915;BME280;60387;49.994;14.660;2023-08-24T13:12:57;97657.28;;;39.87;21.77
71915;BME280;60387;49.994;14.660;2023-08-24T13:15:30;97653.59;;;40.01;21.41
71915;BME280;60387;49.994;14.660;2023-08-24T13:18:04;97655.59;;;39.75;21.17
71915;BME280;60387;49.994;14.660;2023-08-24T13:20:37;97645.22;;;39.52;21.06
71915;BME280;60387;49.994;14.660;2023-08-24T13:23:10;97641.16;;;39.39;20.86
71915;BME280;60387;49.994;14.660;2023-08-24T13:25:44;97641.09;;;39.33;21.41
71915;BME280;60387;49.994;14.660;2023-08-24T13:28:17;97631.44;;;39.25;21.84
71915;BME280;60387;49.994;14.660;2023-08-24T13:30:50;97625.91;;;39.36;20.78
71915;BME280;60387;49.994;14.660;2023-08-24T13:33:24;97609.03;;;39.47;20.90
71915;BME280;60387;49.994;14.660;2023-08-24T13:35:57;97599.09;;;39.57;20.59
71915;BME280;60387;49.994;14.660;2023-08-24T13:38:30;97594.72;;;39.56;20.54